ADDS METAR Data INFO
IDs: Format: Raw Decoded Include TAF

Data at: 0452 UTC 25 May 2018

METAR for:PAVC (King Cove Arpt, AK, US)
Text:PAVC 250448Z AUTO 25005KT 10SM SCT020 BKN045 OVC080 07/04 A2960 RMK AO2 RAB25E39 P0000
Temperature: 7.0°C ( 45°F)
Dewpoint: 4.0°C ( 39°F) [RH = 81%]
Pressure (altimeter):29.60 inches Hg (1002.5 mb)
Winds:from the WSW (250 degrees) at 6 MPH (5 knots; 2.6 m/s)
Visibility:10 or more sm (16+ km)
Ceiling:4500 feet AGL
Clouds: scattered clouds at 2000 feet AGL, broken clouds at 4500 feet AGL, overcast cloud deck at 8000 feet AGL
QC Flag:automated observation with no human augmentation
Text:PAVC 250412Z AUTO 21008KT 10SM SCT024 BKN028 OVC075 07/04 A2960 RMK AO2
Temperature: 7.0°C ( 45°F)
Dewpoint: 4.0°C ( 39°F) [RH = 81%]
Pressure (altimeter):29.60 inches Hg (1002.5 mb)
Winds:from the SSW (210 degrees) at 9 MPH (8 knots; 4.1 m/s)
Visibility:10 or more sm (16+ km)
Ceiling:2800 feet AGL
Clouds: scattered clouds at 2400 feet AGL, broken clouds at 2800 feet AGL, overcast cloud deck at 7500 feet AGL
QC Flag:automated observation with no human augmentation
Text:PAVC 250403Z AUTO 20006KT 10SM FEW022 BKN050 OVC075 07/04 A2960 RMK AO2
Temperature: 7.0°C ( 45°F)
Dewpoint: 4.0°C ( 39°F) [RH = 81%]
Pressure (altimeter):29.60 inches Hg (1002.5 mb)
Winds:from the SSW (200 degrees) at 7 MPH (6 knots; 3.1 m/s)
Visibility:10 or more sm (16+ km)
Ceiling:5000 feet AGL
Clouds: few clouds at 2200 feet AGL, broken clouds at 5000 feet AGL, overcast cloud deck at 7500 feet AGL
QC Flag:automated observation with no human augmentation
Text:PAVC 250356Z AUTO 21007KT 10SM SCT022 BKN029 OVC075 07/04 A2960 RMK AO2 SLP028 T00720039
Temperature: 7.2°C ( 45°F)
Dewpoint: 3.9°C ( 39°F) [RH = 80%]
Pressure (altimeter):29.60 inches Hg (1002.5 mb) [Sea level pressure: 1002.8 mb]
Winds:from the SSW (210 degrees) at 8 MPH (7 knots; 3.6 m/s)
Visibility:10 or more sm (16+ km)
Ceiling:2900 feet AGL
Clouds: scattered clouds at 2200 feet AGL, broken clouds at 2900 feet AGL, overcast cloud deck at 7500 feet AGL
QC Flag:automated observation with no human augmentation
Text:PAVC 250322Z AUTO 19007KT 10SM BKN026 OVC070 07/03 A2960 RMK AO2
Temperature: 7.0°C ( 45°F)
Dewpoint: 3.0°C ( 37°F) [RH = 76%]
Pressure (altimeter):29.60 inches Hg (1002.5 mb)
Winds:from the S (190 degrees) at 8 MPH (7 knots; 3.6 m/s)
Visibility:10 or more sm (16+ km)
Ceiling:2600 feet AGL
Clouds: broken clouds at 2600 feet AGL, overcast cloud deck at 7000 feet AGL
QC Flag:automated observation with no human augmentation
Text:PAVC 250256Z AUTO 19006KT 10SM OVC070 08/04 A2960 RMK AO2 SLP028 60001 T00780039 56005
Temperature: 7.8°C ( 46°F)
Dewpoint: 3.9°C ( 39°F) [RH = 76%]
Pressure (altimeter):29.60 inches Hg (1002.5 mb) [Sea level pressure: 1002.8 mb]
Winds:from the S (190 degrees) at 7 MPH (6 knots; 3.1 m/s)
Visibility:10 or more sm (16+ km)
Ceiling:7000 feet AGL
Clouds: overcast cloud deck at 7000 feet AGL
QC Flag:automated observation with no human augmentation
Text:PAVC 250156Z AUTO 21006KT 10SM FEW018 BKN033 OVC070 08/03 A2960 RMK AO2 RAE10 SLP028 P0000 T00780033
Temperature: 7.8°C ( 46°F)
Dewpoint: 3.3°C ( 38°F) [RH = 73%]
Pressure (altimeter):29.60 inches Hg (1002.5 mb) [Sea level pressure: 1002.8 mb]
Winds:from the SSW (210 degrees) at 7 MPH (6 knots; 3.1 m/s)
Visibility:10 or more sm (16+ km)
Ceiling:3300 feet AGL
Clouds: few clouds at 1800 feet AGL, broken clouds at 3300 feet AGL, overcast cloud deck at 7000 feet AGL
QC Flag:automated observation with no human augmentation
Text:PAVC 250114Z AUTO 23004KT 10SM BKN031 BKN039 OVC065 07/03 A2961 RMK AO2 RAE10 P0000
Temperature: 7.0°C ( 45°F)
Dewpoint: 3.0°C ( 37°F) [RH = 76%]
Pressure (altimeter):29.61 inches Hg (1002.8 mb)
Winds:from the SW (230 degrees) at 5 MPH (4 knots; 2.1 m/s)
Visibility:10 or more sm (16+ km)
Ceiling:3100 feet AGL
Clouds: broken clouds at 3100 feet AGL, broken clouds at 3900 feet AGL, overcast cloud deck at 6500 feet AGL
QC Flag:automated observation with no human augmentation
Text:PAVC 250056Z AUTO VRB05KT 10SM -RA BKN029 OVC036 06/04 A2961 RMK AO2 SLP031 P0001 T00610039
Temperature: 6.1°C ( 43°F)
Dewpoint: 3.9°C ( 39°F) [RH = 86%]
Pressure (altimeter):29.61 inches Hg (1002.8 mb) [Sea level pressure: 1003.1 mb]
Winds:variable direction winds at 6 MPH (5 knots; 2.6 m/s)
Visibility:10 or more sm (16+ km)
Ceiling:2900 feet AGL
Clouds: broken clouds at 2900 feet AGL, overcast cloud deck at 3600 feet AGL
Weather:-RA (light rain)
QC Flag:automated observation with no human augmentation
Text:PAVC 242356Z AUTO 18010KT 10SM -RA OVC025 06/03 A2961 RMK AO2 RAB2258 SLP033 P0003 60003 T00560028 10083 20056 53008
Temperature: 5.6°C ( 42°F)
Dewpoint: 2.8°C ( 37°F) [RH = 82%]
Pressure (altimeter):29.61 inches Hg (1002.8 mb) [Sea level pressure: 1003.3 mb]
Winds:from the S (180 degrees) at 12 MPH (10 knots; 5.1 m/s)
Visibility:10 or more sm (16+ km)
Ceiling:2500 feet AGL
Clouds: overcast cloud deck at 2500 feet AGL
Weather:-RA (light rain)
QC Flag:automated observation with no human augmentation
Text:PAVC 242256Z AUTO 24005KT 10SM BKN025 OVC042 08/03 A2960 RMK AO2 SLP028 T00780028
Temperature: 7.8°C ( 46°F)
Dewpoint: 2.8°C ( 37°F) [RH = 71%]
Pressure (altimeter):29.60 inches Hg (1002.5 mb) [Sea level pressure: 1002.8 mb]
Winds:from the WSW (240 degrees) at 6 MPH (5 knots; 2.6 m/s)
Visibility:10 or more sm (16+ km)
Ceiling:2500 feet AGL
Clouds: broken clouds at 2500 feet AGL, overcast cloud deck at 4200 feet AGL
QC Flag:automated observation with no human augmentation

TAF for:PAVC (King Cove Arpt, AK, US)
Text:No data found